sensor_id;sensor_type;location;lat;lon;timestamp;P1;durP1;ratioP1;P2;durP2;ratioP2
81868;SDS011;71320;52.252;13.382;2023-09-18T00:01:11;6.65;;;4.82;;
81868;SDS011;71320;52.252;13.382;2023-09-18T00:06:13;5.53;;;4.90;;
81868;SDS011;71320;52.252;13.382;2023-09-18T00:11:16;6.03;;;5.10;;
81868;SDS011;71320;52.252;13.382;2023-09-18T00:16:18;7.97;;;5.50;;
81868;SDS011;71320;52.252;13.382;2023-09-18T00:21:19;6.72;;;5.18;;
81868;SDS011;71320;52.252;13.382;2023-09-18T00:26:22;6.00;;;4.93;;
81868;SDS011;71320;52.252;13.382;2023-09-18T00:31:26;8.18;;;5.35;;
81868;SDS011;71320;52.252;13.382;2023-09-18T00:36:28;6.33;;;5.00;;
81868;SDS011;71320;52.252;13.382;2023-09-18T00:41:31;7.30;;;5.30;;
81868;SDS011;71320;52.252;13.382;2023-09-18T00:46:34;5.37;;;4.83;;
81868;SDS011;71320;52.252;13.382;2023-09-18T00:51:36;6.30;;;5.30;;
81868;SDS011;71320;52.252;13.382;2023-09-18T00:56:41;7.00;;;5.70;;
81868;SDS011;71320;52.252;13.382;2023-09-18T01:01:43;7.13;;;5.53;;
81868;SDS011;71320;52.252;13.382;2023-09-18T01:06:46;5.50;;;5.00;;
81868;SDS011;71320;52.252;13.382;2023-09-18T01:11:52;5.75;;;4.63;;
81868;SDS011;71320;52.252;13.382;2023-09-18T01:17:00;5.90;;;5.20;;
81868;SDS011;71320;52.252;13.382;2023-09-18T01:22:04;6.10;;;5.17;;
81868;SDS011;71320;52.252;13.382;2023-09-18T01:27:09;7.85;;;5.25;;
81868;SDS011;71320;52.252;13.382;2023-09-18T01:32:13;6.40;;;5.15;;
81868;SDS011;71320;52.252;13.382;2023-09-18T01:37:15;6.57;;;5.33;;
81868;SDS011;71320;52.252;13.382;2023-09-18T01:42:22;6.32;;;5.30;;
81868;SDS011;71320;52.252;13.382;2023-09-18T01:47:24;5.27;;;4.77;;
81868;SDS011;71320;52.252;13.382;2023-09-18T01:52:26;6.07;;;5.40;;
81868;SDS011;71320;52.252;13.382;2023-09-18T01:57:30;5.70;;;4.78;;
81868;SDS011;71320;52.252;13.382;2023-09-18T02:02:31;6.07;;;4.80;;
81868;SDS011;71320;52.252;13.382;2023-09-18T02:07:33;5.38;;;4.57;;
81868;SDS011;71320;52.252;13.382;2023-09-18T02:12:36;5.22;;;4.72;;
81868;SDS011;71320;52.252;13.382;2023-09-18T02:17:38;5.73;;;4.73;;
81868;SDS011;71320;52.252;13.382;2023-09-18T02:22:39;6.63;;;5.13;;
81868;SDS011;71320;52.252;13.382;2023-09-18T02:27:43;7.30;;;4.90;;
81868;SDS011;71320;52.252;13.382;2023-09-18T02:32:45;5.72;;;4.80;;
81868;SDS011;71320;52.252;13.382;2023-09-18T02:37:47;7.13;;;5.22;;
81868;SDS011;71320;52.252;13.382;2023-09-18T02:42:50;5.60;;;4.88;;
81868;SDS011;71320;52.252;13.382;2023-09-18T02:47:52;6.25;;;4.63;;
81868;SDS011;71320;52.252;13.382;2023-09-18T02:52:54;5.30;;;4.80;;
81868;SDS011;71320;52.252;13.382;2023-09-18T02:57:57;6.70;;;5.17;;
81868;SDS011;71320;52.252;13.382;2023-09-18T03:02:59;5.47;;;4.90;;
81868;SDS011;71320;52.252;13.382;2023-09-18T03:08:00;6.82;;;5.47;;
81868;SDS011;71320;52.252;13.382;2023-09-18T03:13:04;7.05;;;5.40;;
81868;SDS011;71320;52.252;13.382;2023-09-18T03:18:06;5.70;;;4.90;;
81868;SDS011;71320;52.252;13.382;2023-09-18T03:23:08;5.68;;;5.00;;
81868;SDS011;71320;52.252;13.382;2023-09-18T03:28:11;7.13;;;5.40;;
81868;SDS011;71320;52.252;13.382;2023-09-18T03:33:13;5.75;;;5.15;;
81868;SDS011;71320;52.252;13.382;2023-09-18T03:38:14;5.97;;;5.37;;
81868;SDS011;71320;52.252;13.382;2023-09-18T03:43:18;6.27;;;5.50;;
81868;SDS011;71320;52.252;13.382;2023-09-18T03:48:20;6.35;;;5.05;;
81868;SDS011;71320;52.252;13.382;2023-09-18T03:53:25;5.68;;;5.00;;
81868;SDS011;71320;52.252;13.382;2023-09-18T03:58:28;6.43;;;5.10;;
81868;SDS011;71320;52.252;13.382;2023-09-18T04:03:30;7.77;;;5.40;;
81868;SDS011;71320;52.252;13.382;2023-09-18T04:08:33;6.23;;;5.47;;
81868;SDS011;71320;52.252;13.382;2023-09-18T04:13:36;6.68;;;4.95;;
81868;SDS011;71320;52.252;13.382;2023-09-18T04:18:37;5.97;;;5.37;;
81868;SDS011;71320;52.252;13.382;2023-09-18T04:23:39;5.50;;;4.90;;
81868;SDS011;71320;52.252;13.382;2023-09-18T04:28:42;8.60;;;5.23;;
81868;SDS011;71320;52.252;13.382;2023-09-18T04:33:44;6.03;;;5.30;;
81868;SDS011;71320;52.252;13.382;2023-09-18T04:38:46;7.20;;;5.72;;
81868;SDS011;71320;52.252;13.382;2023-09-18T04:43:49;6.93;;;5.00;;
81868;SDS011;71320;52.252;13.382;2023-09-18T04:48:51;5.50;;;4.75;;
81868;SDS011;71320;52.252;13.382;2023-09-18T04:53:53;5.97;;;5.38;;
81868;SDS011;71320;52.252;13.382;2023-09-18T04:58:57;7.20;;;5.82;;
81868;SDS011;71320;52.252;13.382;2023-09-18T05:03:59;6.10;;;5.03;;
81868;SDS011;71320;52.252;13.382;2023-09-18T05:09:00;5.95;;;5.32;;
81868;SDS011;71320;52.252;13.382;2023-09-18T05:14:04;7.60;;;5.30;;
81868;SDS011;71320;52.252;13.382;2023-09-18T05:19:06;6.00;;;5.13;;
81868;SDS011;71320;52.252;13.382;2023-09-18T05:24:07;6.00;;;5.28;;
81868;SDS011;71320;52.252;13.382;2023-09-18T05:29:11;6.73;;;5.53;;
81868;SDS011;71320;52.252;13.382;2023-09-18T05:34:12;15.73;;;5.60;;
81868;SDS011;71320;52.252;13.382;2023-09-18T05:39:14;9.77;;;5.03;;
81868;SDS011;71320;52.252;13.382;2023-09-18T05:44:18;12.52;;;5.80;;
81868;SDS011;71320;52.252;13.382;2023-09-18T05:49:20;7.65;;;4.95;;
81868;SDS011;71320;52.252;13.382;2023-09-18T05:54:21;8.85;;;5.22;;
81868;SDS011;71320;52.252;13.382;2023-09-18T05:59:24;13.70;;;6.00;;
81868;SDS011;71320;52.252;13.382;2023-09-18T06:04:26;10.20;;;6.70;;
81868;SDS011;71320;52.252;13.382;2023-09-18T06:09:27;9.03;;;5.13;;
81868;SDS011;71320;52.252;13.382;2023-09-18T06:14:30;6.13;;;5.50;;
81868;SDS011;71320;52.252;13.382;2023-09-18T06:19:34;7.30;;;5.35;;
81868;SDS011;71320;52.252;13.382;2023-09-18T06:24:36;8.83;;;5.63;;
81868;SDS011;71320;52.252;13.382;2023-09-18T06:29:39;8.07;;;5.65;;
81868;SDS011;71320;52.252;13.382;2023-09-18T06:34:42;5.50;;;4.97;;
81868;SDS011;71320;52.252;13.382;2023-09-18T06:39:44;6.90;;;5.30;;
81868;SDS011;71320;52.252;13.382;2023-09-18T06:44:47;9.37;;;5.30;;
81868;SDS011;71320;52.252;13.382;2023-09-18T06:49:49;6.65;;;4.90;;
81868;SDS011;71320;52.252;13.382;2023-09-18T06:54:51;7.40;;;5.43;;
81868;SDS011;71320;52.252;13.382;2023-09-18T06:59:55;7.90;;;5.40;;
81868;SDS011;71320;52.252;13.382;2023-09-18T07:04:56;5.90;;;5.18;;
81868;SDS011;71320;52.252;13.382;2023-09-18T07:09:58;6.82;;;4.82;;
81868;SDS011;71320;52.252;13.382;2023-09-18T07:15:01;7.27;;;4.90;;
81868;SDS011;71320;52.252;13.382;2023-09-18T07:20:05;8.38;;;4.85;;
81868;SDS011;71320;52.252;13.382;2023-09-18T07:25:13;5.65;;;4.60;;
81868;SDS011;71320;52.252;13.382;2023-09-18T07:30:17;6.47;;;4.47;;
81868;SDS011;71320;52.252;13.382;2023-09-18T07:35:20;5.07;;;4.50;;
81868;SDS011;71320;52.252;13.382;2023-09-18T07:40:22;5.50;;;4.72;;
81868;SDS011;71320;52.252;13.382;2023-09-18T07:45:25;4.93;;;4.43;;
81868;SDS011;71320;52.252;13.382;2023-09-18T07:50:27;7.07;;;4.60;;
81868;SDS011;71320;52.252;13.382;2023-09-18T07:55:31;6.70;;;4.20;;
81868;SDS011;71320;52.252;13.382;2023-09-18T08:00:34;5.32;;;4.72;;
81868;SDS011;71320;52.252;13.382;2023-09-18T08:05:36;5.95;;;4.47;;
81868;SDS011;71320;52.252;13.382;2023-09-18T08:10:38;7.53;;;4.25;;
81868;SDS011;71320;52.252;13.382;2023-09-18T08:15:41;5.88;;;4.47;;
81868;SDS011;71320;52.252;13.382;2023-09-18T08:20:44;5.45;;;4.60;;
81868;SDS011;71320;52.252;13.382;2023-09-18T08:25:46;4.60;;;4.00;;
81868;SDS011;71320;52.252;13.382;2023-09-18T08:30:50;4.63;;;4.17;;
81868;SDS011;71320;52.252;13.382;2023-09-18T08:35:51;5.00;;;4.38;;
81868;SDS011;71320;52.252;13.382;2023-09-18T08:40:53;6.22;;;4.15;;
81868;SDS011;71320;52.252;13.382;2023-09-18T08:45:56;4.23;;;3.83;;
81868;SDS011;71320;52.252;13.382;2023-09-18T08:51:01;4.60;;;4.20;;
81868;SDS011;71320;52.252;13.382;2023-09-18T08:56:04;4.65;;;4.18;;
81868;SDS011;71320;52.252;13.382;2023-09-18T09:01:08;5.78;;;4.45;;
81868;SDS011;71320;52.252;13.382;2023-09-18T09:06:10;5.07;;;4.47;;
81868;SDS011;71320;52.252;13.382;2023-09-18T09:11:13;4.72;;;4.20;;
81868;SDS011;71320;52.252;13.382;2023-09-18T09:16:16;6.37;;;4.10;;
81868;SDS011;71320;52.252;13.382;2023-09-18T09:21:19;4.63;;;4.00;;
81868;SDS011;71320;52.252;13.382;2023-09-18T09:26:21;5.80;;;4.55;;
81868;SDS011;71320;52.252;13.382;2023-09-18T09:31:25;4.90;;;4.10;;
81868;SDS011;71320;52.252;13.382;2023-09-18T09:36:28;5.17;;;4.07;;
81868;SDS011;71320;52.252;13.382;2023-09-18T09:41:31;6.60;;;4.00;;
81868;SDS011;71320;52.252;13.382;2023-09-18T09:46:35;4.72;;;4.25;;
81868;SDS011;71320;52.252;13.382;2023-09-18T09:51:37;5.70;;;3.60;;
81868;SDS011;71320;52.252;13.382;2023-09-18T09:56:42;4.70;;;3.63;;
81868;SDS011;71320;52.252;13.382;2023-09-18T10:01:47;5.03;;;3.73;;
81868;SDS011;71320;52.252;13.382;2023-09-18T10:06:51;4.30;;;3.90;;
81868;SDS011;71320;52.252;13.382;2023-09-18T10:11:54;4.72;;;3.80;;
81868;SDS011;71320;52.252;13.382;2023-09-18T10:17:02;4.63;;;3.80;;
81868;SDS011;71320;52.252;13.382;2023-09-18T10:22:11;5.77;;;3.53;;
81868;SDS011;71320;52.252;13.382;2023-09-18T10:27:22;3.37;;;3.07;;
81868;SDS011;71320;52.252;13.382;2023-09-18T10:32:27;3.78;;;3.38;;
81868;SDS011;71320;52.252;13.382;2023-09-18T10:37:30;4.13;;;3.42;;
81868;SDS011;71320;52.252;13.382;2023-09-18T10:42:32;4.03;;;3.43;;
81868;SDS011;71320;52.252;13.382;2023-09-18T10:47:37;3.83;;;3.35;;
81868;SDS011;71320;52.252;13.382;2023-09-18T10:52:42;3.75;;;3.30;;
81868;SDS011;71320;52.252;13.382;2023-09-18T10:57:50;5.60;;;3.28;;
81868;SDS011;71320;52.252;13.382;2023-09-18T11:02:56;3.97;;;3.50;;
81868;SDS011;71320;52.252;13.382;2023-09-18T11:08:24;3.50;;;3.20;;
81868;SDS011;71320;52.252;13.382;2023-09-18T11:13:29;3.60;;;3.30;;
81868;SDS011;71320;52.252;13.382;2023-09-18T11:18:37;3.30;;;3.00;;
81868;SDS011;71320;52.252;13.382;2023-09-18T11:23:39;3.50;;;3.10;;
81868;SDS011;71320;52.252;13.382;2023-09-18T11:28:43;3.70;;;3.40;;
81868;SDS011;71320;52.252;13.382;2023-09-18T11:33:51;3.30;;;3.00;;
81868;SDS011;71320;52.252;13.382;2023-09-18T11:38:54;5.63;;;2.87;;
81868;SDS011;71320;52.252;13.382;2023-09-18T11:49:37;4.78;;;3.08;;
81868;SDS011;71320;52.252;13.382;2023-09-18T11:54:43;4.27;;;3.10;;
81868;SDS011;71320;52.252;13.382;2023-09-18T11:59:47;3.58;;;3.13;;
81868;SDS011;71320;52.252;13.382;2023-09-18T12:04:51;3.90;;;2.70;;
81868;SDS011;71320;52.252;13.382;2023-09-18T12:09:53;4.13;;;2.92;;
81868;SDS011;71320;52.252;13.382;2023-09-18T12:14:55;10.10;;;3.70;;
81868;SDS011;71320;52.252;13.382;2023-09-18T12:19:59;10.27;;;3.57;;
81868;SDS011;71320;52.252;13.382;2023-09-18T12:25:10;11.95;;;4.03;;
81868;SDS011;71320;52.252;13.382;2023-09-18T12:30:12;5.90;;;3.63;;
81868;SDS011;71320;52.252;13.382;2023-09-18T12:35:21;4.57;;;3.50;;
81868;SDS011;71320;52.252;13.382;2023-09-18T12:40:29;5.63;;;3.70;;
81868;SDS011;71320;52.252;13.382;2023-09-18T12:45:33;7.03;;;3.80;;
81868;SDS011;71320;52.252;13.382;2023-09-18T12:50:37;5.37;;;3.57;;
81868;SDS011;71320;52.252;13.382;2023-09-18T12:55:39;5.68;;;3.40;;
81868;SDS011;71320;52.252;13.382;2023-09-18T13:00:45;4.78;;;3.45;;
81868;SDS011;71320;52.252;13.382;2023-09-18T13:05:51;3.88;;;3.38;;
81868;SDS011;71320;52.252;13.382;2023-09-18T13:10:54;6.20;;;3.60;;
81868;SDS011;71320;52.252;13.382;2023-09-18T13:15:57;5.13;;;3.65;;
81868;SDS011;71320;52.252;13.382;2023-09-18T13:21:08;5.47;;;3.40;;
81868;SDS011;71320;52.252;13.382;2023-09-18T13:26:10;4.25;;;3.35;;
81868;SDS011;71320;52.252;13.382;2023-09-18T13:31:12;5.17;;;3.50;;
81868;SDS011;71320;52.252;13.382;2023-09-18T13:36:15;5.50;;;3.65;;
81868;SDS011;71320;52.252;13.382;2023-09-18T13:41:17;6.97;;;3.50;;
81868;SDS011;71320;52.252;13.382;2023-09-18T13:46:18;6.93;;;3.43;;
81868;SDS011;71320;52.252;13.382;2023-09-18T13:51:21;4.25;;;3.13;;
81868;SDS011;71320;52.252;13.382;2023-09-18T13:56:23;4.57;;;3.00;;
81868;SDS011;71320;52.252;13.382;2023-09-18T14:01:27;5.73;;;2.90;;
81868;SDS011;71320;52.252;13.382;2023-09-18T14:06:30;4.35;;;2.97;;
81868;SDS011;71320;52.252;13.382;2023-09-18T14:11:33;5.47;;;3.00;;
81868;SDS011;71320;52.252;13.382;2023-09-18T14:16:38;4.87;;;3.20;;
81868;SDS011;71320;52.252;13.382;2023-09-18T14:21:41;7.17;;;3.00;;
81868;SDS011;71320;52.252;13.382;2023-09-18T14:26:43;7.50;;;2.80;;
81868;SDS011;71320;52.252;13.382;2023-09-18T14:31:44;5.65;;;2.90;;
81868;SDS011;71320;52.252;13.382;2023-09-18T14:36:47;5.28;;;2.70;;
81868;SDS011;71320;52.252;13.382;2023-09-18T14:41:49;6.22;;;2.45;;
81868;SDS011;71320;52.252;13.382;2023-09-18T14:46:51;3.80;;;2.13;;
81868;SDS011;71320;52.252;13.382;2023-09-18T14:51:54;5.63;;;2.13;;
81868;SDS011;71320;52.252;13.382;2023-09-18T14:56:55;4.57;;;2.50;;
81868;SDS011;71320;52.252;13.382;2023-09-18T15:01:58;6.27;;;2.43;;
81868;SDS011;71320;52.252;13.382;2023-09-18T15:07:00;4.82;;;2.30;;
81868;SDS011;71320;52.252;13.382;2023-09-18T15:12:02;4.80;;;2.30;;
81868;SDS011;71320;52.252;13.382;2023-09-18T15:17:07;3.97;;;2.40;;
81868;SDS011;71320;52.252;13.382;2023-09-18T15:22:10;7.35;;;2.80;;
81868;SDS011;71320;52.252;13.382;2023-09-18T15:27:12;6.07;;;2.30;;
81868;SDS011;71320;52.252;13.382;2023-09-18T15:32:13;4.80;;;1.98;;
81868;SDS011;71320;52.252;13.382;2023-09-18T15:37:16;4.70;;;2.40;;
81868;SDS011;71320;52.252;13.382;2023-09-18T15:42:18;4.63;;;1.90;;
81868;SDS011;71320;52.252;13.382;2023-09-18T15:47:20;4.80;;;2.15;;
81868;SDS011;71320;52.252;13.382;2023-09-18T15:52:23;5.63;;;2.47;;
81868;SDS011;71320;52.252;13.382;2023-09-18T15:57:24;6.65;;;2.40;;
81868;SDS011;71320;52.252;13.382;2023-09-18T16:02:26;6.03;;;2.10;;
81868;SDS011;71320;52.252;13.382;2023-09-18T16:07:29;6.07;;;2.37;;
81868;SDS011;71320;52.252;13.382;2023-09-18T16:12:31;7.40;;;2.50;;
81868;SDS011;71320;52.252;13.382;2023-09-18T16:17:34;6.28;;;2.50;;
81868;SDS011;71320;52.252;13.382;2023-09-18T16:22:37;5.68;;;2.55;;
81868;SDS011;71320;52.252;13.382;2023-09-18T16:27:42;5.80;;;2.33;;
81868;SDS011;71320;52.252;13.382;2023-09-18T16:32:44;5.13;;;2.30;;
81868;SDS011;71320;52.252;13.382;2023-09-18T16:37:47;7.70;;;2.53;;
81868;SDS011;71320;52.252;13.382;2023-09-18T16:42:48;9.70;;;3.20;;
81868;SDS011;71320;52.252;13.382;2023-09-18T16:47:50;8.77;;;3.17;;
81868;SDS011;71320;52.252;13.382;2023-09-18T16:52:53;7.53;;;3.20;;
81868;SDS011;71320;52.252;13.382;2023-09-18T16:57:55;8.93;;;3.00;;
81868;SDS011;71320;52.252;13.382;2023-09-18T17:02:57;7.72;;;2.70;;
81868;SDS011;71320;52.252;13.382;2023-09-18T17:07:59;6.80;;;2.70;;
81868;SDS011;71320;52.252;13.382;2023-09-18T17:13:02;7.10;;;3.08;;
81868;SDS011;71320;52.252;13.382;2023-09-18T17:18:04;5.28;;;2.63;;
81868;SDS011;71320;52.252;13.382;2023-09-18T17:23:07;8.13;;;2.53;;
81868;SDS011;71320;52.252;13.382;2023-09-18T17:28:09;5.30;;;2.58;;
81868;SDS011;71320;52.252;13.382;2023-09-18T17:33:12;8.53;;;2.37;;
81868;SDS011;71320;52.252;13.382;2023-09-18T17:38:15;6.28;;;2.55;;
81868;SDS011;71320;52.252;13.382;2023-09-18T17:43:17;6.68;;;2.63;;
81868;SDS011;71320;52.252;13.382;2023-09-18T17:48:18;6.30;;;2.40;;
81868;SDS011;71320;52.252;13.382;2023-09-18T17:53:21;5.32;;;2.30;;
81868;SDS011;71320;52.252;13.382;2023-09-18T17:58:23;6.40;;;2.47;;
81868;SDS011;71320;52.252;13.382;2023-09-18T18:03:25;4.27;;;2.47;;
81868;SDS011;71320;52.252;13.382;2023-09-18T18:08:28;5.03;;;2.45;;
81868;SDS011;71320;52.252;13.382;2023-09-18T18:13:29;4.03;;;2.40;;
81868;SDS011;71320;52.252;13.382;2023-09-18T18:18:31;3.75;;;2.13;;
81868;SDS011;71320;52.252;13.382;2023-09-18T18:23:34;4.13;;;2.10;;
81868;SDS011;71320;52.252;13.382;2023-09-18T18:28:36;4.63;;;2.30;;
81868;SDS011;71320;52.252;13.382;2023-09-18T18:33:38;4.43;;;2.13;;
81868;SDS011;71320;52.252;13.382;2023-09-18T18:38:42;4.28;;;2.20;;
81868;SDS011;71320;52.252;13.382;2023-09-18T18:43:43;3.47;;;1.98;;
81868;SDS011;71320;52.252;13.382;2023-09-18T18:48:46;3.22;;;2.17;;
81868;SDS011;71320;52.252;13.382;2023-09-18T18:53:48;2.83;;;1.83;;
81868;SDS011;71320;52.252;13.382;2023-09-18T18:58:50;3.97;;;1.88;;
81868;SDS011;71320;52.252;13.382;2023-09-18T19:03:52;3.85;;;2.15;;
81868;SDS011;71320;52.252;13.382;2023-09-18T19:08:57;4.65;;;1.80;;
81868;SDS011;71320;52.252;13.382;2023-09-18T19:13:59;3.50;;;1.80;;
81868;SDS011;71320;52.252;13.382;2023-09-18T19:19:00;3.72;;;1.80;;
81868;SDS011;71320;52.252;13.382;2023-09-18T19:24:04;4.72;;;2.10;;
81868;SDS011;71320;52.252;13.382;2023-09-18T19:29:06;3.60;;;1.60;;
81868;SDS011;71320;52.252;13.382;2023-09-18T19:34:08;4.40;;;1.80;;
81868;SDS011;71320;52.252;13.382;2023-09-18T19:39:16;4.30;;;1.83;;
81868;SDS011;71320;52.252;13.382;2023-09-18T19:44:18;6.22;;;2.15;;
81868;SDS011;71320;52.252;13.382;2023-09-18T19:49:19;3.42;;;1.67;;
81868;SDS011;71320;52.252;13.382;2023-09-18T19:54:22;3.10;;;1.77;;
81868;SDS011;71320;52.252;13.382;2023-09-18T19:59:24;3.78;;;1.90;;
81868;SDS011;71320;52.252;13.382;2023-09-18T20:04:25;2.77;;;1.60;;
81868;SDS011;71320;52.252;13.382;2023-09-18T20:09:30;4.38;;;1.70;;
81868;SDS011;71320;52.252;13.382;2023-09-18T20:14:32;4.07;;;1.73;;
81868;SDS011;71320;52.252;13.382;2023-09-18T20:19:34;2.80;;;1.57;;
81868;SDS011;71320;52.252;13.382;2023-09-18T20:24:37;3.47;;;1.80;;
81868;SDS011;71320;52.252;13.382;2023-09-18T20:29:38;5.00;;;1.80;;
81868;SDS011;71320;52.252;13.382;2023-09-18T20:34:40;2.60;;;1.40;;
81868;SDS011;71320;52.252;13.382;2023-09-18T20:39:43;2.93;;;1.33;;
81868;SDS011;71320;52.252;13.382;2023-09-18T20:44:44;3.30;;;1.70;;
81868;SDS011;71320;52.252;13.382;2023-09-18T20:49:46;4.53;;;1.87;;
81868;SDS011;71320;52.252;13.382;2023-09-18T20:54:49;2.55;;;1.58;;
81868;SDS011;71320;52.252;13.382;2023-09-18T20:59:51;3.50;;;1.43;;
81868;SDS011;71320;52.252;13.382;2023-09-18T21:04:53;5.63;;;1.50;;
81868;SDS011;71320;52.252;13.382;2023-09-18T21:09:56;3.92;;;1.60;;
81868;SDS011;71320;52.252;13.382;2023-09-18T21:14:58;3.83;;;1.50;;
81868;SDS011;71320;52.252;13.382;2023-09-18T21:20:00;4.03;;;1.53;;
81868;SDS011;71320;52.252;13.382;2023-09-18T21:25:06;2.83;;;1.43;;
81868;SDS011;71320;52.252;13.382;2023-09-18T21:30:09;2.75;;;1.30;;
81868;SDS011;71320;52.252;13.382;2023-09-18T21:35:11;3.00;;;1.50;;
81868;SDS011;71320;52.252;13.382;2023-09-18T21:40:14;2.42;;;1.40;;
81868;SDS011;71320;52.252;13.382;2023-09-18T21:45:16;4.05;;;1.60;;
81868;SDS011;71320;52.252;13.382;2023-09-18T21:50:17;2.63;;;1.17;;
81868;SDS011;71320;52.252;13.382;2023-09-18T21:55:21;2.33;;;1.08;;
81868;SDS011;71320;52.252;13.382;2023-09-18T22:00:23;3.00;;;1.40;;
81868;SDS011;71320;52.252;13.382;2023-09-18T22:05:28;2.67;;;1.30;;
81868;SDS011;71320;52.252;13.382;2023-09-18T22:10:31;2.35;;;1.20;;
81868;SDS011;71320;52.252;13.382;2023-09-18T22:15:33;2.70;;;1.25;;
81868;SDS011;71320;52.252;13.382;2023-09-18T22:20:34;1.77;;;1.10;;
81868;SDS011;71320;52.252;13.382;2023-09-18T22:25:39;4.45;;;1.60;;
81868;SDS011;71320;52.252;13.382;2023-09-18T22:30:40;3.30;;;1.63;;
81868;SDS011;71320;52.252;13.382;2023-09-18T22:35:44;2.65;;;1.45;;
81868;SDS011;71320;52.252;13.382;2023-09-18T22:57:10;2.47;;;1.23;;
81868;SDS011;71320;52.252;13.382;2023-09-18T23:02:14;2.03;;;1.30;;
81868;SDS011;71320;52.252;13.382;2023-09-18T23:07:16;3.17;;;1.50;;
81868;SDS011;71320;52.252;13.382;2023-09-18T23:12:19;2.38;;;1.20;;
81868;SDS011;71320;52.252;13.382;2023-09-18T23:17:21;3.05;;;1.27;;
81868;SDS011;71320;52.252;13.382;2023-09-18T23:22:23;2.90;;;1.40;;
81868;SDS011;71320;52.252;13.382;2023-09-18T23:27:31;2.20;;;1.00;;
81868;SDS011;71320;52.252;13.382;2023-09-18T23:32:32;2.47;;;1.30;;
81868;SDS011;71320;52.252;13.382;2023-09-18T23:37:34;2.93;;;1.30;;
81868;SDS011;71320;52.252;13.382;2023-09-18T23:42:38;2.38;;;1.10;;
81868;SDS011;71320;52.252;13.382;2023-09-18T23:47:41;2.87;;;1.40;;
81868;SDS011;71320;52.252;13.382;2023-09-18T23:52:46;2.95;;;1.30;;
81868;SDS011;71320;52.252;13.382;2023-09-18T23:57:52;2.80;;;1.05;;
